sensor_id;sensor_type;location;lat;lon;timestamp;pressure;altitude;pressure_sealevel;temperature;humidity
69570;BME280;56781;42.292;23.146;2023-01-20T00:01:28;94526.31;;;5.93;100.00
69570;BME280;56781;42.292;23.146;2023-01-20T00:03:56;94552.50;;;6.13;100.00
69570;BME280;56781;42.292;23.146;2023-01-20T00:06:25;94522.00;;;5.97;100.00
69570;BME280;56781;42.292;23.146;2023-01-20T00:08:58;94522.59;;;5.94;100.00
69570;BME280;56781;42.292;23.146;2023-01-20T00:11:29;94522.59;;;5.94;100.00
69570;BME280;56781;42.292;23.146;2023-01-20T00:14:00;94531.25;;;6.13;100.00
69570;BME280;56781;42.292;23.146;2023-01-20T00:16:28;94489.72;;;5.90;100.00
69570;BME280;56781;42.292;23.146;2023-01-20T00:18:57;94465.66;;;6.00;100.00
69570;BME280;56781;42.292;23.146;2023-01-20T00:21:25;94438.00;;;5.87;100.00
69570;BME280;56781;42.292;23.146;2023-01-20T00:23:52;94450.75;;;6.27;100.00
69570;BME280;56781;42.292;23.146;2023-01-20T00:26:21;94444.84;;;6.30;100.00
69570;BME280;56781;42.292;23.146;2023-01-20T00:28:52;94454.69;;;6.15;100.00
69570;BME280;56781;42.292;23.146;2023-01-20T00:31:21;94481.59;;;6.50;100.00
69570;BME280;56781;42.292;23.146;2023-01-20T00:33:50;94454.31;;;6.22;100.00
69570;BME280;56781;42.292;23.146;2023-01-20T00:36:18;94470.00;;;6.46;100.00
69570;BME280;56781;42.292;23.146;2023-01-20T00:38:46;94497.75;;;6.54;100.00
69570;BME280;56781;42.292;23.146;2023-01-20T00:41:14;94458.91;;;6.30;100.00
69570;BME280;56781;42.292;23.146;2023-01-20T00:43:42;94493.25;;;6.40;100.00
69570;BME280;56781;42.292;23.146;2023-01-20T00:46:10;94462.53;;;6.34;100.00
69570;BME280;56781;42.292;23.146;2023-01-20T00:48:37;94488.47;;;6.65;100.00
69570;BME280;56781;42.292;23.146;2023-01-20T00:51:06;94460.34;;;6.50;100.00
69570;BME280;56781;42.292;23.146;2023-01-20T00:53:34;94471.09;;;6.45;100.00
69570;BME280;56781;42.292;23.146;2023-01-20T00:56:01;94458.00;;;6.35;100.00
69570;BME280;56781;42.292;23.146;2023-01-20T00:58:29;94459.22;;;6.29;100.00
69570;BME280;56781;42.292;23.146;2023-01-20T01:00:56;94465.97;;;6.35;100.00
69570;BME280;56781;42.292;23.146;2023-01-20T01:03:25;94496.22;;;6.39;100.00
69570;BME280;56781;42.292;23.146;2023-01-20T01:05:54;94453.72;;;6.25;100.00
69570;BME280;56781;42.292;23.146;2023-01-20T01:08:30;94467.56;;;6.36;100.00
69570;BME280;56781;42.292;23.146;2023-01-20T01:10:57;94463.00;;;6.50;100.00
69570;BME280;56781;42.292;23.146;2023-01-20T01:13:24;94414.22;;;6.32;100.00
69570;BME280;56781;42.292;23.146;2023-01-20T01:15:51;94449.97;;;6.62;100.00
69570;BME280;56781;42.292;23.146;2023-01-20T01:18:19;94403.69;;;6.63;100.00
69570;BME280;56781;42.292;23.146;2023-01-20T01:20:46;94418.31;;;6.75;100.00
69570;BME280;56781;42.292;23.146;2023-01-20T01:23:13;94439.94;;;6.82;100.00
69570;BME280;56781;42.292;23.146;2023-01-20T01:25:40;94443.31;;;6.96;100.00
69570;BME280;56781;42.292;23.146;2023-01-20T01:28:07;94439.88;;;6.96;100.00
69570;BME280;56781;42.292;23.146;2023-01-20T01:30:34;94435.41;;;7.05;100.00
69570;BME280;56781;42.292;23.146;2023-01-20T01:33:01;94446.09;;;7.14;100.00
69570;BME280;56781;42.292;23.146;2023-01-20T01:35:29;94432.56;;;7.01;100.00
69570;BME280;56781;42.292;23.146;2023-01-20T01:37:56;94466.47;;;7.18;100.00
69570;BME280;56781;42.292;23.146;2023-01-20T01:40:23;94462.06;;;7.14;100.00
69570;BME280;56781;42.292;23.146;2023-01-20T01:42:50;94426.94;;;7.34;100.00
69570;BME280;56781;42.292;23.146;2023-01-20T01:45:22;94411.09;;;7.29;100.00
69570;BME280;56781;42.292;23.146;2023-01-20T01:48:02;94409.81;;;7.18;100.00
69570;BME280;56781;42.292;23.146;2023-01-20T01:50:42;94428.50;;;7.35;100.00
69570;BME280;56781;42.292;23.146;2023-01-20T01:53:13;94423.41;;;7.47;100.00
69570;BME280;56781;42.292;23.146;2023-01-20T01:55:47;94377.50;;;7.42;100.00
69570;BME280;56781;42.292;23.146;2023-01-20T01:58:17;94376.63;;;7.55;100.00
69570;BME280;56781;42.292;23.146;2023-01-20T02:00:45;94359.66;;;7.42;100.00
69570;BME280;56781;42.292;23.146;2023-01-20T02:03:13;94347.72;;;7.40;100.00
69570;BME280;56781;42.292;23.146;2023-01-20T02:05:41;94357.47;;;7.44;100.00
69570;BME280;56781;42.292;23.146;2023-01-20T02:08:09;94363.59;;;7.53;100.00
69570;BME280;56781;42.292;23.146;2023-01-20T02:10:37;94331.59;;;7.36;100.00
69570;BME280;56781;42.292;23.146;2023-01-20T02:13:04;94338.84;;;7.44;100.00
69570;BME280;56781;42.292;23.146;2023-01-20T02:15:39;94353.44;;;7.55;100.00
69570;BME280;56781;42.292;23.146;2023-01-20T02:24:18;94370.50;;;7.54;100.00
69570;BME280;56781;42.292;23.146;2023-01-20T02:27:04;94372.69;;;7.52;100.00
69570;BME280;56781;42.292;23.146;2023-01-20T02:32:48;94342.25;;;7.36;100.00
69570;BME280;56781;42.292;23.146;2023-01-20T02:41:38;94335.34;;;7.35;100.00
69570;BME280;56781;42.292;23.146;2023-01-20T02:46:32;94354.03;;;7.44;100.00
69570;BME280;56781;42.292;23.146;2023-01-20T02:49:35;94329.34;;;7.21;100.00
69570;BME280;56781;42.292;23.146;2023-01-20T02:52:11;94318.34;;;7.14;100.00
69570;BME280;56781;42.292;23.146;2023-01-20T02:54:41;94334.50;;;7.17;100.00
69570;BME280;56781;42.292;23.146;2023-01-20T02:57:14;94363.53;;;7.36;100.00
69570;BME280;56781;42.292;23.146;2023-01-20T02:59:47;94330.44;;;7.20;100.00
69570;BME280;56781;42.292;23.146;2023-01-20T03:02:23;94278.38;;;6.96;100.00
69570;BME280;56781;42.292;23.146;2023-01-20T03:05:16;94333.25;;;7.23;100.00
69570;BME280;56781;42.292;23.146;2023-01-20T03:07:47;94336.91;;;7.36;100.00
69570;BME280;56781;42.292;23.146;2023-01-20T03:10:18;94310.19;;;7.10;100.00
69570;BME280;56781;42.292;23.146;2023-01-20T03:12:56;94319.84;;;6.97;100.00
69570;BME280;56781;42.292;23.146;2023-01-20T03:15:32;94296.41;;;6.68;100.00
69570;BME280;56781;42.292;23.146;2023-01-20T03:18:01;94320.47;;;6.63;100.00
69570;BME280;56781;42.292;23.146;2023-01-20T03:20:28;94315.09;;;6.54;100.00
69570;BME280;56781;42.292;23.146;2023-01-20T03:22:56;94352.38;;;6.63;100.00
69570;BME280;56781;42.292;23.146;2023-01-20T03:25:24;94354.59;;;6.70;100.00
69570;BME280;56781;42.292;23.146;2023-01-20T03:27:51;94358.88;;;6.79;100.00
69570;BME280;56781;42.292;23.146;2023-01-20T03:30:19;94324.41;;;6.65;100.00
69570;BME280;56781;42.292;23.146;2023-01-20T03:32:48;94357.94;;;6.84;100.00
69570;BME280;56781;42.292;23.146;2023-01-20T03:35:17;94367.03;;;6.83;100.00
69570;BME280;56781;42.292;23.146;2023-01-20T03:37:45;94338.22;;;6.76;100.00
69570;BME280;56781;42.292;23.146;2023-01-20T03:40:13;94314.69;;;6.70;100.00
69570;BME280;56781;42.292;23.146;2023-01-20T03:43:00;94282.97;;;6.42;100.00
69570;BME280;56781;42.292;23.146;2023-01-20T03:45:45;94307.38;;;6.44;100.00
69570;BME280;56781;42.292;23.146;2023-01-20T03:48:17;94304.59;;;6.49;100.00
69570;BME280;56781;42.292;23.146;2023-01-20T03:51:06;94309.91;;;6.49;100.00
69570;BME280;56781;42.292;23.146;2023-01-20T03:53:51;94318.47;;;6.69;100.00
69570;BME280;56781;42.292;23.146;2023-01-20T03:56:34;94281.03;;;6.34;100.00
69570;BME280;56781;42.292;23.146;2023-01-20T03:59:04;94282.00;;;6.38;100.00
69570;BME280;56781;42.292;23.146;2023-01-20T04:01:37;94273.03;;;6.56;100.00
69570;BME280;56781;42.292;23.146;2023-01-20T04:04:09;94259.97;;;6.69;100.00
69570;BME280;56781;42.292;23.146;2023-01-20T04:06:37;94250.88;;;6.70;100.00
69570;BME280;56781;42.292;23.146;2023-01-20T04:09:09;94249.63;;;6.67;100.00
69570;BME280;56781;42.292;23.146;2023-01-20T04:11:37;94255.25;;;6.65;100.00
69570;BME280;56781;42.292;23.146;2023-01-20T04:14:07;94257.06;;;6.56;100.00
69570;BME280;56781;42.292;23.146;2023-01-20T04:16:35;94271.53;;;6.73;100.00
69570;BME280;56781;42.292;23.146;2023-01-20T04:19:02;94254.13;;;6.58;100.00
69570;BME280;56781;42.292;23.146;2023-01-20T04:21:36;94256.94;;;6.61;100.00
69570;BME280;56781;42.292;23.146;2023-01-20T04:24:20;94281.97;;;6.60;100.00
69570;BME280;56781;42.292;23.146;2023-01-20T04:26:49;94300.00;;;6.72;100.00
69570;BME280;56781;42.292;23.146;2023-01-20T04:29:16;94296.44;;;6.77;100.00
69570;BME280;56781;42.292;23.146;2023-01-20T04:31:44;94304.50;;;6.63;100.00
69570;BME280;56781;42.292;23.146;2023-01-20T04:34:12;94316.13;;;6.76;100.00
69570;BME280;56781;42.292;23.146;2023-01-20T04:36:41;94299.41;;;6.75;100.00
69570;BME280;56781;42.292;23.146;2023-01-20T04:39:08;94326.09;;;6.93;100.00
69570;BME280;56781;42.292;23.146;2023-01-20T04:41:35;94309.38;;;6.70;100.00
69570;BME280;56781;42.292;23.146;2023-01-20T04:44:02;94321.72;;;6.65;100.00
69570;BME280;56781;42.292;23.146;2023-01-20T04:46:30;94306.03;;;6.55;100.00
69570;BME280;56781;42.292;23.146;2023-01-20T04:48:57;94336.72;;;6.61;100.00
69570;BME280;56781;42.292;23.146;2023-01-20T04:51:24;94359.38;;;6.81;100.00
69570;BME280;56781;42.292;23.146;2023-01-20T04:53:56;94349.16;;;6.75;100.00
69570;BME280;56781;42.292;23.146;2023-01-20T04:56:23;94376.91;;;6.82;100.00
69570;BME280;56781;42.292;23.146;2023-01-20T04:58:51;94354.59;;;6.70;100.00
69570;BME280;56781;42.292;23.146;2023-01-20T05:01:18;94381.31;;;6.87;100.00
69570;BME280;56781;42.292;23.146;2023-01-20T05:03:45;94393.34;;;6.84;100.00
69570;BME280;56781;42.292;23.146;2023-01-20T05:06:13;94395.06;;;6.89;100.00
69570;BME280;56781;42.292;23.146;2023-01-20T05:08:40;94361.34;;;6.76;100.00
69570;BME280;56781;42.292;23.146;2023-01-20T05:11:07;94353.06;;;6.77;100.00
69570;BME280;56781;42.292;23.146;2023-01-20T05:13:34;94328.66;;;6.75;100.00
69570;BME280;56781;42.292;23.146;2023-01-20T05:16:06;94311.22;;;6.60;100.00
69570;BME280;56781;42.292;23.146;2023-01-20T05:18:33;94279.19;;;6.43;100.00
69570;BME280;56781;42.292;23.146;2023-01-20T05:21:02;94275.69;;;6.56;100.00
69570;BME280;56781;42.292;23.146;2023-01-20T05:23:30;94295.59;;;6.68;100.00
69570;BME280;56781;42.292;23.146;2023-01-20T05:25:57;94270.44;;;6.42;100.00
69570;BME280;56781;42.292;23.146;2023-01-20T05:28:24;94294.91;;;6.53;100.00
69570;BME280;56781;42.292;23.146;2023-01-20T05:30:51;94272.16;;;6.38;100.00
69570;BME280;56781;42.292;23.146;2023-01-20T05:33:18;94305.97;;;6.47;100.00
69570;BME280;56781;42.292;23.146;2023-01-20T05:35:46;94336.13;;;6.42;100.00
69570;BME280;56781;42.292;23.146;2023-01-20T05:38:13;94343.13;;;6.38;100.00
69570;BME280;56781;42.292;23.146;2023-01-20T05:40:40;94383.13;;;6.55;100.00
69570;BME280;56781;42.292;23.146;2023-01-20T05:43:07;94356.16;;;6.48;100.00
69570;BME280;56781;42.292;23.146;2023-01-20T05:45:34;94349.84;;;6.35;100.00
69570;BME280;56781;42.292;23.146;2023-01-20T05:48:01;94356.44;;;6.38;100.00
69570;BME280;56781;42.292;23.146;2023-01-20T05:50:29;94346.38;;;6.35;100.00
69570;BME280;56781;42.292;23.146;2023-01-20T05:52:57;94339.63;;;6.29;100.00
69570;BME280;56781;42.292;23.146;2023-01-20T05:55:24;94333.81;;;6.27;100.00
69570;BME280;56781;42.292;23.146;2023-01-20T05:57:51;94321.44;;;6.22;100.00
69570;BME280;56781;42.292;23.146;2023-01-20T06:00:18;94329.94;;;6.10;100.00
69570;BME280;56781;42.292;23.146;2023-01-20T06:02:45;94347.34;;;6.16;100.00
69570;BME280;56781;42.292;23.146;2023-01-20T06:05:13;94357.06;;;6.21;100.00
69570;BME280;56781;42.292;23.146;2023-01-20T06:07:40;94333.81;;;6.27;100.00
69570;BME280;56781;42.292;23.146;2023-01-20T06:10:08;94323.50;;;6.48;100.00
69570;BME280;56781;42.292;23.146;2023-01-20T06:12:35;94299.94;;;6.32;100.00
69570;BME280;56781;42.292;23.146;2023-01-20T06:15:03;94274.94;;;6.11;100.00
69570;BME280;56781;42.292;23.146;2023-01-20T06:17:30;94295.78;;;6.17;100.00
69570;BME280;56781;42.292;23.146;2023-01-20T06:19:57;94291.78;;;6.29;100.00
69570;BME280;56781;42.292;23.146;2023-01-20T06:22:25;94306.06;;;6.33;100.00
69570;BME280;56781;42.292;23.146;2023-01-20T06:24:53;94306.06;;;6.33;100.00
69570;BME280;56781;42.292;23.146;2023-01-20T06:27:20;94298.47;;;6.26;100.00
69570;BME280;56781;42.292;23.146;2023-01-20T06:29:47;94348.81;;;6.45;100.00
69570;BME280;56781;42.292;23.146;2023-01-20T06:32:16;94307.34;;;6.21;100.00
69570;BME280;56781;42.292;23.146;2023-01-20T06:34:43;94290.81;;;6.02;100.00
69570;BME280;56781;42.292;23.146;2023-01-20T06:37:11;94302.19;;;6.16;100.00
69570;BME280;56781;42.292;23.146;2023-01-20T06:39:38;94282.66;;;5.98;100.00
69570;BME280;56781;42.292;23.146;2023-01-20T06:42:06;94283.94;;;6.01;100.00
69570;BME280;56781;42.292;23.146;2023-01-20T06:44:33;94294.13;;;6.08;100.00
69570;BME280;56781;42.292;23.146;2023-01-20T06:47:00;94283.22;;;6.09;100.00
69570;BME280;56781;42.292;23.146;2023-01-20T06:49:28;94237.81;;;5.83;100.00
69570;BME280;56781;42.292;23.146;2023-01-20T06:51:56;94276.47;;;6.03;100.00
69570;BME280;56781;42.292;23.146;2023-01-20T06:54:23;94305.38;;;6.27;100.00
69570;BME280;56781;42.292;23.146;2023-01-20T06:56:50;94310.56;;;6.32;100.00
69570;BME280;56781;42.292;23.146;2023-01-20T06:59:17;94296.13;;;6.02;100.00
69570;BME280;56781;42.292;23.146;2023-01-20T07:01:44;94297.94;;;6.15;100.00
69570;BME280;56781;42.292;23.146;2023-01-20T07:04:12;94271.69;;;6.14;100.00
69570;BME280;56781;42.292;23.146;2023-01-20T07:06:41;94277.78;;;6.14;100.00
69570;BME280;56781;42.292;23.146;2023-01-20T07:09:10;94266.78;;;6.07;100.00
69570;BME280;56781;42.292;23.146;2023-01-20T07:11:38;94288.19;;;6.25;100.00
69570;BME280;56781;42.292;23.146;2023-01-20T07:14:06;94258.63;;;6.04;100.00
69570;BME280;56781;42.292;23.146;2023-01-20T07:16:33;94248.78;;;6.04;100.00
69570;BME280;56781;42.292;23.146;2023-01-20T07:19:00;94282.06;;;6.24;100.00
69570;BME280;56781;42.292;23.146;2023-01-20T07:21:28;94249.50;;;6.18;100.00
69570;BME280;56781;42.292;23.146;2023-01-20T07:23:58;94247.53;;;6.02;100.00
69570;BME280;56781;42.292;23.146;2023-01-20T07:26:26;94293.00;;;6.22;100.00
69570;BME280;56781;42.292;23.146;2023-01-20T07:28:53;94247.53;;;6.02;100.00
69570;BME280;56781;42.292;23.146;2023-01-20T07:31:22;94228.84;;;5.93;100.00
69570;BME280;56781;42.292;23.146;2023-01-20T07:33:51;94243.38;;;6.09;100.00
69570;BME280;56781;42.292;23.146;2023-01-20T07:36:18;94240.00;;;5.95;100.00
69570;BME280;56781;42.292;23.146;2023-01-20T07:38:46;94247.56;;;6.10;100.00
69570;BME280;56781;42.292;23.146;2023-01-20T07:41:14;94204.22;;;5.78;100.00
69570;BME280;56781;42.292;23.146;2023-01-20T07:43:43;94229.75;;;5.88;100.00
69570;BME280;56781;42.292;23.146;2023-01-20T07:46:10;94218.81;;;5.90;100.00
69570;BME280;56781;42.292;23.146;2023-01-20T07:48:38;94253.75;;;6.19;100.00
69570;BME280;56781;42.292;23.146;2023-01-20T07:51:07;94227.59;;;6.13;100.00
69570;BME280;56781;42.292;23.146;2023-01-20T07:53:37;94243.25;;;6.14;100.00
69570;BME280;56781;42.292;23.146;2023-01-20T07:56:09;94241.41;;;6.24;100.00
69570;BME280;56781;42.292;23.146;2023-01-20T07:58:37;94269.53;;;6.47;100.00
69570;BME280;56781;42.292;23.146;2023-01-20T08:01:17;94259.28;;;6.32;100.00
69570;BME280;56781;42.292;23.146;2023-01-20T08:03:45;94238.78;;;6.55;100.00
69570;BME280;56781;42.292;23.146;2023-01-20T08:06:15;94243.03;;;6.64;100.00
69570;BME280;56781;42.292;23.146;2023-01-20T08:08:42;94250.44;;;6.45;100.00
69570;BME280;56781;42.292;23.146;2023-01-20T08:11:12;94243.69;;;6.39;100.00
69570;BME280;56781;42.292;23.146;2023-01-20T08:13:39;94286.09;;;6.44;100.00
69570;BME280;56781;42.292;23.146;2023-01-20T08:16:09;94253.50;;;6.30;100.00
69570;BME280;56781;42.292;23.146;2023-01-20T08:18:37;94250.31;;;6.19;100.00
69570;BME280;56781;42.292;23.146;2023-01-20T08:21:06;94233.59;;;5.96;100.00
69570;BME280;56781;42.292;23.146;2023-01-20T08:23:34;94231.75;;;6.05;100.00
69570;BME280;56781;42.292;23.146;2023-01-20T08:26:06;94240.81;;;6.04;100.00
69570;BME280;56781;42.292;23.146;2023-01-20T08:28:34;94225.25;;;6.11;100.00
69570;BME280;56781;42.292;23.146;2023-01-20T08:31:09;94260.69;;;6.07;100.00
69570;BME280;56781;42.292;23.146;2023-01-20T08:33:38;94232.72;;;6.09;100.00
69570;BME280;56781;42.292;23.146;2023-01-20T08:36:13;94248.84;;;6.13;100.00
69570;BME280;56781;42.292;23.146;2023-01-20T08:38:41;94242.50;;;6.22;100.00
69570;BME280;56781;42.292;23.146;2023-01-20T08:41:12;94250.78;;;6.43;100.00
69570;BME280;56781;42.292;23.146;2023-01-20T08:43:39;94214.53;;;6.56;100.00
69570;BME280;56781;42.292;23.146;2023-01-20T08:46:10;94220.88;;;6.78;100.00
69570;BME280;56781;42.292;23.146;2023-01-20T08:48:39;94240.25;;;7.09;100.00
69570;BME280;56781;42.292;23.146;2023-01-20T08:51:12;94209.38;;;7.00;100.00
69570;BME280;56781;42.292;23.146;2023-01-20T08:53:41;94229.31;;;7.20;100.00
69570;BME280;56781;42.292;23.146;2023-01-20T08:56:10;94209.97;;;6.88;100.00
69570;BME280;56781;42.292;23.146;2023-01-20T08:58:38;94202.16;;;6.92;100.00
69570;BME280;56781;42.292;23.146;2023-01-20T09:01:15;94221.38;;;6.80;100.00
69570;BME280;56781;42.292;23.146;2023-01-20T09:03:43;94211.59;;;6.66;100.00
69570;BME280;56781;42.292;23.146;2023-01-20T09:06:30;94195.84;;;6.39;100.00
69570;BME280;56781;42.292;23.146;2023-01-20T09:08:58;94197.78;;;6.47;100.00
69570;BME280;56781;42.292;23.146;2023-01-20T09:11:25;94188.91;;;6.60;100.00
69570;BME280;56781;42.292;23.146;2023-01-20T09:13:52;94194.84;;;6.57;100.00
69570;BME280;56781;42.292;23.146;2023-01-20T09:16:20;94213.09;;;6.90;100.00
69570;BME280;56781;42.292;23.146;2023-01-20T09:18:47;94244.59;;;7.05;100.00
69570;BME280;56781;42.292;23.146;2023-01-20T09:21:14;94220.13;;;6.86;100.00
69570;BME280;56781;42.292;23.146;2023-01-20T09:23:41;94251.28;;;6.94;100.00
69570;BME280;56781;42.292;23.146;2023-01-20T09:26:09;94231.88;;;6.85;100.00
69570;BME280;56781;42.292;23.146;2023-01-20T09:28:36;94224.69;;;6.94;100.00
69570;BME280;56781;42.292;23.146;2023-01-20T09:31:06;94199.81;;;6.90;100.00
69570;BME280;56781;42.292;23.146;2023-01-20T09:33:35;94208.75;;;7.03;100.00
69570;BME280;56781;42.292;23.146;2023-01-20T09:36:07;94224.44;;;7.22;100.00
69570;BME280;56781;42.292;23.146;2023-01-20T09:38:35;94185.59;;;7.03;100.00
69570;BME280;56781;42.292;23.146;2023-01-20T09:41:27;94185.28;;;7.14;100.00
69570;BME280;56781;42.292;23.146;2023-01-20T09:52:36;94178.19;;;6.83;100.00
69570;BME280;56781;42.292;23.146;2023-01-20T09:55:29;94197.81;;;7.04;100.00
69570;BME280;56781;42.292;23.146;2023-01-20T10:00:40;94167.78;;;7.30;100.00
69570;BME280;56781;42.292;23.146;2023-01-20T10:03:21;94160.44;;;7.36;100.00
69570;BME280;56781;42.292;23.146;2023-01-20T10:05:52;94166.22;;;7.46;100.00
69570;BME280;56781;42.292;23.146;2023-01-20T10:08:31;94167.03;;;7.55;100.00
69570;BME280;56781;42.292;23.146;2023-01-20T10:11:10;94157.31;;;7.51;100.00
69570;BME280;56781;42.292;23.146;2023-01-20T10:13:48;94150.25;;;7.64;100.00
69570;BME280;56781;42.292;23.146;2023-01-20T10:16:30;94145.34;;;7.92;100.00
69570;BME280;56781;42.292;23.146;2023-01-20T10:19:04;94154.25;;;8.05;100.00
69570;BME280;56781;42.292;23.146;2023-01-20T10:21:41;94181.88;;;7.91;100.00
69570;BME280;56781;42.292;23.146;2023-01-20T10:24:23;94185.03;;;7.59;100.00
69570;BME280;56781;42.292;23.146;2023-01-20T10:27:00;94171.69;;;7.15;100.00
69570;BME280;56781;42.292;23.146;2023-01-20T10:29:29;94194.09;;;7.23;100.00
69570;BME280;56781;42.292;23.146;2023-01-20T10:32:01;94183.41;;;7.05;100.00
69570;BME280;56781;42.292;23.146;2023-01-20T10:34:42;94187.28;;;6.91;100.00
69570;BME280;56781;42.292;23.146;2023-01-20T10:37:11;94162.22;;;6.83;100.00
69570;BME280;56781;42.292;23.146;2023-01-20T10:39:47;94159.72;;;6.86;100.00
69570;BME280;56781;42.292;23.146;2023-01-20T10:42:17;94168.66;;;6.82;100.00
69570;BME280;56781;42.292;23.146;2023-01-20T10:44:46;94177.91;;;6.93;100.00
69570;BME280;56781;42.292;23.146;2023-01-20T10:50:28;94165.34;;;6.76;100.00
69570;BME280;56781;42.292;23.146;2023-01-20T10:53:14;94190.09;;;6.85;100.00
69570;BME280;56781;42.292;23.146;2023-01-20T10:55:57;94194.91;;;6.75;100.00
69570;BME280;56781;42.292;23.146;2023-01-20T10:58:32;94177.91;;;6.44;100.00
69570;BME280;56781;42.292;23.146;2023-01-20T11:01:04;94179.78;;;6.44;100.00
69570;BME280;56781;42.292;23.146;2023-01-20T11:03:38;94195.28;;;6.19;100.00
69570;BME280;56781;42.292;23.146;2023-01-20T11:06:20;94219.66;;;6.21;100.00
69570;BME280;56781;42.292;23.146;2023-01-20T11:08:48;94215.56;;;5.93;100.00
69570;BME280;56781;42.292;23.146;2023-01-20T11:11:21;94168.97;;;5.64;100.00
69570;BME280;56781;42.292;23.146;2023-01-20T11:13:50;94212.91;;;5.93;100.00
69570;BME280;56781;42.292;23.146;2023-01-20T11:16:24;94258.09;;;6.15;100.00
69570;BME280;56781;42.292;23.146;2023-01-20T11:19:04;94201.84;;;5.77;100.00
69570;BME280;56781;42.292;23.146;2023-01-20T11:21:35;94237.38;;;5.81;100.00
69570;BME280;56781;42.292;23.146;2023-01-20T11:24:27;94248.53;;;5.92;100.00
69570;BME280;56781;42.292;23.146;2023-01-20T11:27:05;94227.38;;;5.64;100.00
69570;BME280;56781;42.292;23.146;2023-01-20T11:29:41;94237.44;;;5.53;100.00
69570;BME280;56781;42.292;23.146;2023-01-20T11:32:34;94241.28;;;5.47;100.00
69570;BME280;56781;42.292;23.146;2023-01-20T11:35:22;94249.84;;;5.44;100.00
69570;BME280;56781;42.292;23.146;2023-01-20T11:37:51;94271.47;;;5.51;100.00
69570;BME280;56781;42.292;23.146;2023-01-20T11:40:24;94263.03;;;5.36;100.00
69570;BME280;56781;42.292;23.146;2023-01-20T11:42:52;94252.44;;;5.36;100.00
69570;BME280;56781;42.292;23.146;2023-01-20T11:45:26;94278.31;;;5.66;100.00
69570;BME280;56781;42.292;23.146;2023-01-20T11:48:17;94254.53;;;5.61;100.00
69570;BME280;56781;42.292;23.146;2023-01-20T11:50:47;94256.72;;;5.59;100.00
69570;BME280;56781;42.292;23.146;2023-01-20T11:53:24;94263.97;;;5.53;100.00
69570;BME280;56781;42.292;23.146;2023-01-20T11:56:02;94285.19;;;5.67;100.00
69570;BME280;56781;42.292;23.146;2023-01-20T11:58:48;94245.31;;;5.45;100.00
69570;BME280;56781;42.292;23.146;2023-01-20T12:01:27;94247.69;;;5.46;100.00
69570;BME280;56781;42.292;23.146;2023-01-20T12:06:48;94271.44;;;5.65;100.00
69570;BME280;56781;42.292;23.146;2023-01-20T12:09:20;94258.88;;;5.57;100.00
69570;BME280;56781;42.292;23.146;2023-01-20T12:12:35;94251.72;;;5.44;100.00
69570;BME280;56781;42.292;23.146;2023-01-20T12:14:56;94268.38;;;5.58;100.00
69570;BME280;56781;42.292;23.146;2023-01-20T12:22:57;94249.72;;;5.86;100.00
69570;BME280;56781;42.292;23.146;2023-01-20T12:25:30;94254.38;;;5.80;100.00
69570;BME280;56781;42.292;23.146;2023-01-20T12:31:01;94251.03;;;5.74;100.00
69570;BME280;56781;42.292;23.146;2023-01-20T12:33:32;94289.72;;;6.03;100.00
69570;BME280;56781;42.292;23.146;2023-01-20T12:45:11;94295.47;;;6.19;100.00
69570;BME280;56781;42.292;23.146;2023-01-20T12:50:57;94302.47;;;6.37;100.00
69570;BME280;56781;42.292;23.146;2023-01-20T12:53:32;94281.03;;;6.34;100.00
69570;BME280;56781;42.292;23.146;2023-01-20T13:05:00;94288.75;;;5.99;100.00
69570;BME280;56781;42.292;23.146;2023-01-20T13:10:33;94309.91;;;5.90;100.00
69570;BME280;56781;42.292;23.146;2023-01-20T13:13:28;94315.25;;;5.76;100.00
69570;BME280;56781;42.292;23.146;2023-01-20T13:16:19;94300.84;;;5.55;100.00
69570;BME280;56781;42.292;23.146;2023-01-20T13:18:59;94305.88;;;5.29;100.00
69570;BME280;56781;42.292;23.146;2023-01-20T13:21:31;94318.97;;;5.25;100.00
69570;BME280;56781;42.292;23.146;2023-01-20T13:24:03;94342.94;;;5.06;100.00
69570;BME280;56781;42.292;23.146;2023-01-20T13:26:32;94321.41;;;4.94;100.00
69570;BME280;56781;42.292;23.146;2023-01-20T13:29:01;94307.16;;;4.90;100.00
69570;BME280;56781;42.292;23.146;2023-01-20T13:31:43;94327.88;;;5.02;100.00
69570;BME280;56781;42.292;23.146;2023-01-20T13:39:46;94319.94;;;5.29;100.00
69570;BME280;56781;42.292;23.146;2023-01-20T13:42:46;94317.47;;;5.47;100.00
69570;BME280;56781;42.292;23.146;2023-01-20T13:45:17;94321.31;;;5.54;100.00
69570;BME280;56781;42.292;23.146;2023-01-20T13:48:00;94348.28;;;5.84;100.00
69570;BME280;56781;42.292;23.146;2023-01-20T13:50:46;94328.47;;;6.04;100.00
69570;BME280;56781;42.292;23.146;2023-01-20T13:53:26;94351.06;;;6.15;100.00
69570;BME280;56781;42.292;23.146;2023-01-20T13:55:58;94363.97;;;6.22;100.00
69570;BME280;56781;42.292;23.146;2023-01-20T13:58:30;94333.03;;;5.90;100.00
69570;BME280;56781;42.292;23.146;2023-01-20T14:01:03;94339.13;;;5.90;100.00
69570;BME280;56781;42.292;23.146;2023-01-20T14:03:36;94378.75;;;6.14;100.00
69570;BME280;56781;42.292;23.146;2023-01-20T14:06:06;94344.53;;;5.99;100.00
69570;BME280;56781;42.292;23.146;2023-01-20T14:08:46;94357.50;;;6.14;100.00
69570;BME280;56781;42.292;23.146;2023-01-20T14:11:21;94363.53;;;6.29;100.00
69570;BME280;56781;42.292;23.146;2023-01-20T14:13:57;94361.59;;;6.43;100.00
69570;BME280;56781;42.292;23.146;2023-01-20T14:16:35;94365.19;;;6.61;100.00
69570;BME280;56781;42.292;23.146;2023-01-20T14:19:26;94400.50;;;6.84;100.00
69570;BME280;56781;42.292;23.146;2023-01-20T14:21:58;94405.25;;;6.87;100.00
69570;BME280;56781;42.292;23.146;2023-01-20T14:24:56;94383.78;;;6.61;100.00
69570;BME280;56781;42.292;23.146;2023-01-20T14:27:30;94377.56;;;6.43;100.00